createdAt,value
2023-04-17T00:01:03.156Z,100149.53
2023-04-17T00:03:39.312Z,100172.69
2023-04-17T00:06:31.332Z,100182.09
2023-04-17T00:09:12.774Z,100181.47
2023-04-17T00:11:50.117Z,100170.78
2023-04-17T00:14:27.799Z,100173.31
2023-04-17T00:17:04.880Z,100167.44
2023-04-17T00:19:39.709Z,100137.09
2023-04-17T00:22:14.973Z,100141.28
2023-04-17T00:25:00.946Z,100163.75
2023-04-17T00:27:50.440Z,100171.84
2023-04-17T00:30:28.400Z,100158.72
2023-04-17T00:33:06.397Z,100156.53
2023-04-17T00:35:44.587Z,100148.03
2023-04-17T00:38:18.041Z,100157.25
2023-04-17T00:41:00.922Z,100116.66
2023-04-17T00:43:38.267Z,100156.75
2023-04-17T00:46:20.644Z,100157.09
2023-04-17T00:48:54.871Z,100158.38
2023-04-17T00:51:40.132Z,100160.09
2023-04-17T00:54:23.102Z,100151.13
2023-04-17T00:57:07.939Z,100154.31
2023-04-17T00:59:57.743Z,100150.34
2023-04-17T01:02:37.019Z,100154.22
2023-04-17T01:05:15.369Z,100155.22
2023-04-17T01:08:00.262Z,100150.63
2023-04-17T01:10:48.938Z,100154.22
2023-04-17T01:13:29.786Z,100138.03
2023-04-17T01:16:14.587Z,100152.41
2023-04-17T01:18:51.889Z,100152.00
2023-04-17T01:21:23.950Z,100143.81
2023-04-17T01:24:08.135Z,100155.41
2023-04-17T01:26:47.535Z,100133.66
2023-04-17T01:29:26.168Z,100132.78
2023-04-17T01:32:03.336Z,100116.41
2023-04-17T01:34:37.572Z,100156.03
2023-04-17T01:37:13.710Z,100152.03
2023-04-17T01:40:05.788Z,100161.00
2023-04-17T01:42:43.310Z,100130.47
2023-04-17T01:45:25.673Z,100132.16
2023-04-17T01:48:01.264Z,100160.59
2023-04-17T01:50:36.710Z,100164.38
2023-04-17T01:53:16.169Z,100157.19
2023-04-17T01:55:58.202Z,100169.50
2023-04-17T01:58:33.487Z,100167.59
2023-04-17T02:01:11.322Z,100168.97
2023-04-17T02:04:01.965Z,100142.44
2023-04-17T02:06:38.380Z,100163.31
2023-04-17T02:09:13.618Z,100160.41
2023-04-17T02:11:49.301Z,100138.84
2023-04-17T02:14:25.594Z,100153.22
2023-04-17T02:17:05.930Z,100169.28
2023-04-17T02:19:38.647Z,100169.09
2023-04-17T02:22:14.443Z,100168.19
2023-04-17T02:24:53.130Z,100173.56
2023-04-17T02:27:40.446Z,100166.00
2023-04-17T02:30:15.689Z,100161.41
2023-04-17T02:32:59.310Z,100163.00
2023-04-17T02:35:41.284Z,100142.66
2023-04-17T02:38:18.099Z,100164.50
2023-04-17T02:40:55.382Z,100162.00
2023-04-17T02:43:35.904Z,100145.63
2023-04-17T02:46:17.384Z,100158.63
2023-04-17T02:48:50.176Z,100142.16
2023-04-17T02:51:28.314Z,100147.44
2023-04-17T02:54:04.471Z,100161.19
2023-04-17T02:56:37.859Z,100173.59
2023-04-17T02:59:19.908Z,100164.81
2023-04-17T03:01:54.524Z,100149.03
2023-04-17T03:04:38.733Z,100149.31
2023-04-17T03:07:20.316Z,100144.06
2023-04-17T03:09:55.290Z,100165.19
2023-04-17T03:12:31.994Z,100162.78
2023-04-17T03:15:19.193Z,100170.38
2023-04-17T03:17:54.955Z,100167.28
2023-04-17T03:20:41.163Z,100170.56
2023-04-17T03:23:17.572Z,100174.66
2023-04-17T03:25:55.072Z,100143.03
2023-04-17T03:28:29.441Z,100163.50
2023-04-17T03:31:04.815Z,100174.25
2023-04-17T03:33:42.349Z,100175.44
2023-04-17T03:36:24.610Z,100169.06
2023-04-17T03:39:10.664Z,100178.50
2023-04-17T03:41:53.395Z,100181.59
2023-04-17T03:44:31.960Z,100157.16
2023-04-17T03:47:25.549Z,100185.44
2023-04-17T03:50:06.367Z,100156.38
2023-04-17T03:52:47.578Z,100192.91
2023-04-17T03:55:33.186Z,100195.91
2023-04-17T03:58:11.556Z,100188.19
2023-04-17T04:00:50.060Z,100172.44
2023-04-17T04:03:33.455Z,100186.69
2023-04-17T04:06:17.175Z,100190.41
2023-04-17T04:08:53.115Z,100183.25
2023-04-17T04:11:26.432Z,100190.53
2023-04-17T04:14:03.201Z,100184.00
2023-04-17T04:16:40.430Z,100204.56
2023-04-17T04:19:21.392Z,100198.38
2023-04-17T04:21:58.141Z,100198.38
2023-04-17T04:24:46.552Z,100206.69
2023-04-17T04:27:24.251Z,100168.44
2023-04-17T04:30:13.045Z,100198.19
2023-04-17T04:32:48.006Z,100208.81
2023-04-17T04:35:26.108Z,100215.47
2023-04-17T04:38:05.870Z,100213.38
2023-04-17T04:40:40.179Z,100218.16
2023-04-17T04:43:28.924Z,100218.44
2023-04-17T04:46:14.719Z,100222.25
2023-04-17T04:49:00.552Z,100220.88
2023-04-17T04:51:38.935Z,100232.13
2023-04-17T04:54:29.565Z,100204.63
2023-04-17T04:57:08.639Z,100215.28
2023-04-17T04:59:50.011Z,100215.75
2023-04-17T05:02:40.169Z,100227.53
2023-04-17T05:05:16.856Z,100214.47
2023-04-17T05:08:01.067Z,100223.56
2023-04-17T05:10:40.829Z,100218.03
2023-04-17T05:13:17.174Z,100236.94
2023-04-17T05:15:53.086Z,100234.81
2023-04-17T05:18:31.891Z,100235.06
2023-04-17T05:21:09.836Z,100240.44
2023-04-17T05:23:57.385Z,100240.94
2023-04-17T05:26:35.427Z,100245.16
2023-04-17T05:29:19.235Z,100249.94
2023-04-17T05:31:52.926Z,100231.63
2023-04-17T05:35:03.723Z,100254.25
2023-04-17T05:37:37.878Z,100245.38
2023-04-17T05:40:17.690Z,100247.25
2023-04-17T05:42:53.430Z,100267.53
2023-04-17T05:45:30.587Z,100260.84
2023-04-17T05:48:07.342Z,100255.19
2023-04-17T05:50:45.996Z,100251.25
2023-04-17T05:53:21.046Z,100264.84
2023-04-17T05:56:04.228Z,100261.81
2023-04-17T05:58:40.811Z,100264.69
2023-04-17T06:01:19.699Z,100267.00
2023-04-17T06:03:57.161Z,100275.00
2023-04-17T06:06:48.437Z,100268.28
2023-04-17T06:09:38.644Z,100263.22
2023-04-17T06:12:16.735Z,100269.59
2023-04-17T06:14:50.419Z,100275.91
2023-04-17T06:17:29.414Z,100283.09
2023-04-17T06:20:01.768Z,100279.91
2023-04-17T06:22:34.321Z,100277.41
2023-04-17T06:25:30.464Z,100258.13
2023-04-17T06:28:08.722Z,100280.16
2023-04-17T06:30:44.046Z,100280.88
2023-04-17T06:33:27.391Z,100282.56
2023-04-17T06:36:04.025Z,100278.09
2023-04-17T06:38:54.153Z,100237.03
2023-04-17T06:41:35.036Z,100283.63
2023-04-17T06:44:14.601Z,100283.03
2023-04-17T06:46:57.760Z,100284.41
2023-04-17T06:49:32.094Z,100282.63
2023-04-17T06:52:05.148Z,100285.94
2023-04-17T06:54:38.932Z,100282.13
2023-04-17T06:57:18.188Z,100278.72
2023-04-17T06:59:56.504Z,100279.25
2023-04-17T07:02:36.826Z,100286.44
2023-04-17T07:05:16.332Z,100284.84
2023-04-17T07:08:00.506Z,100277.03
2023-04-17T07:10:35.807Z,100286.31
2023-04-17T07:13:24.848Z,100287.31
2023-04-17T07:16:12.460Z,100276.13
2023-04-17T07:18:51.670Z,100299.50
2023-04-17T07:21:31.847Z,100295.00
2023-04-17T07:24:10.297Z,100296.50
2023-04-17T07:26:49.832Z,100302.38
2023-04-17T07:29:28.095Z,100295.44
2023-04-17T07:32:05.714Z,100312.63
2023-04-17T07:34:47.524Z,100302.22
2023-04-17T07:37:25.837Z,100281.56
2023-04-17T07:40:04.252Z,100311.63
2023-04-17T07:42:41.283Z,100310.88
2023-04-17T07:45:16.509Z,100315.84
2023-04-17T07:47:50.626Z,100319.69
2023-04-17T07:50:25.049Z,100312.41
2023-04-17T07:53:04.760Z,100315.50
2023-04-17T07:55:40.724Z,100321.63
2023-04-17T07:58:14.826Z,100318.44
2023-04-17T08:00:48.967Z,100323.69
2023-04-17T08:03:32.423Z,100299.94
2023-04-17T08:06:06.169Z,100324.94
2023-04-17T08:08:41.079Z,100335.69
2023-04-17T08:11:26.844Z,100330.16
2023-04-17T08:14:01.134Z,100284.72
2023-04-17T08:16:39.087Z,100323.88
2023-04-17T08:19:13.992Z,100317.06
2023-04-17T08:21:54.697Z,100322.19
2023-04-17T08:24:35.342Z,100322.19
2023-04-17T08:27:12.770Z,100329.53
2023-04-17T08:29:54.447Z,100321.91
2023-04-17T08:32:30.023Z,100327.84
2023-04-17T08:35:13.121Z,100328.66
2023-04-17T08:37:53.993Z,100328.53
2023-04-17T08:40:28.182Z,100328.84
2023-04-17T08:43:09.499Z,100320.66
2023-04-17T08:45:47.490Z,100331.66
2023-04-17T08:48:25.779Z,100323.84
2023-04-17T08:51:08.640Z,100321.78
2023-04-17T08:53:44.357Z,100305.03
2023-04-17T08:56:25.481Z,100309.47
2023-04-17T08:58:58.245Z,100321.78
2023-04-17T09:01:42.224Z,100297.38
2023-04-17T09:04:44.065Z,100332.31
2023-04-17T09:07:35.855Z,100332.47
2023-04-17T09:10:17.114Z,100326.41
2023-04-17T09:13:15.978Z,100339.78
2023-04-17T09:16:10.847Z,100329.25
2023-04-17T09:18:48.220Z,100332.59
2023-04-17T09:21:23.359Z,100321.59
2023-04-17T09:24:06.762Z,100337.53
2023-04-17T09:26:52.108Z,100327.06
2023-04-17T09:29:28.911Z,100333.75
2023-04-17T09:32:19.846Z,100327.38
2023-04-17T09:34:59.271Z,100329.59
2023-04-17T09:38:02.558Z,100337.41
2023-04-17T09:40:45.551Z,100312.72
2023-04-17T09:43:23.482Z,100333.59
2023-04-17T09:45:58.463Z,100331.03
2023-04-17T09:48:36.129Z,100337.56
2023-04-17T09:51:16.218Z,100331.63
2023-04-17T09:53:53.453Z,100333.03
2023-04-17T09:56:38.028Z,100332.53
2023-04-17T09:59:15.436Z,100331.38
2023-04-17T10:01:52.912Z,100328.00
2023-04-17T10:04:28.335Z,100317.44
2023-04-17T10:07:04.256Z,100304.13
2023-04-17T10:09:37.327Z,100312.59
2023-04-17T10:12:22.923Z,100308.50
2023-04-17T10:15:00.862Z,100297.13
2023-04-17T10:17:35.650Z,100308.19
2023-04-17T10:20:35.745Z,100306.66
2023-04-17T10:23:35.076Z,100305.53
2023-04-17T10:26:45.201Z,100282.00
2023-04-17T10:30:02.506Z,100304.03
2023-04-17T10:32:36.443Z,100299.22
2023-04-17T10:35:39.511Z,100297.78
2023-04-17T10:38:21.108Z,100299.78
2023-04-17T10:40:58.898Z,100289.81
2023-04-17T10:43:38.188Z,100313.28
2023-04-17T10:46:19.831Z,100289.31
2023-04-17T10:48:58.308Z,100303.22
2023-04-17T10:51:47.374Z,100298.53
2023-04-17T10:54:25.641Z,100294.06
2023-04-17T10:57:14.386Z,100296.78
2023-04-17T11:00:11.909Z,100291.81
2023-04-17T11:02:53.058Z,100278.44
2023-04-17T11:05:43.740Z,100293.91
2023-04-17T11:08:21.886Z,100290.28
2023-04-17T11:11:09.316Z,100292.66
2023-04-17T11:14:03.905Z,100291.69
2023-04-17T11:16:42.273Z,100284.13
2023-04-17T11:19:26.637Z,100294.50
2023-04-17T11:22:03.480Z,100302.84
2023-04-17T11:24:39.582Z,100311.25
2023-04-17T11:27:13.466Z,100302.50
2023-04-17T11:29:54.748Z,100308.81
2023-04-17T11:32:32.048Z,100325.31
2023-04-17T11:35:11.050Z,100320.22
2023-04-17T11:38:20.313Z,100310.25
2023-04-17T11:41:02.732Z,100309.00
2023-04-17T11:43:42.077Z,100305.94
2023-04-17T11:46:22.696Z,100298.28
2023-04-17T11:48:57.768Z,100302.69
2023-04-17T11:51:38.907Z,100304.09
2023-04-17T11:54:27.931Z,100309.34
2023-04-17T11:57:17.837Z,100308.53
2023-04-17T12:00:05.007Z,100287.19
2023-04-17T12:02:50.326Z,100311.59
2023-04-17T12:05:26.581Z,100302.88
2023-04-17T12:08:10.977Z,100305.91
2023-04-17T12:10:50.565Z,100302.44
2023-04-17T12:13:29.755Z,100303.91
2023-04-17T12:16:07.271Z,100293.41
2023-04-17T12:18:47.187Z,100279.91
2023-04-17T12:21:21.516Z,100290.91
2023-04-17T12:23:58.669Z,100296.03
2023-04-17T12:26:37.159Z,100253.00
2023-04-17T12:29:12.877Z,100281.59
2023-04-17T12:31:45.974Z,100287.19
2023-04-17T12:34:24.245Z,100288.31
2023-04-17T12:37:06.983Z,100286.06
2023-04-17T12:39:46.345Z,100286.56
2023-04-17T12:42:24.177Z,100292.63
2023-04-17T12:44:58.925Z,100282.91
2023-04-17T12:47:32.409Z,100286.72
2023-04-17T12:50:03.414Z,100284.69
2023-04-17T12:52:41.469Z,100276.53
2023-04-17T12:55:20.311Z,100271.41
2023-04-17T12:57:58.395Z,100277.28
2023-04-17T13:00:30.312Z,100270.22
2023-04-17T13:03:05.633Z,100275.47
2023-04-17T13:05:45.011Z,100274.88
2023-04-17T13:08:21.250Z,100276.44
2023-04-17T13:11:01.234Z,100270.03
2023-04-17T13:13:39.466Z,100266.97
2023-04-17T13:16:14.546Z,100261.94
2023-04-17T13:18:51.457Z,100272.59
2023-04-17T13:21:25.919Z,100274.03
2023-04-17T13:24:04.478Z,100270.25
2023-04-17T13:26:48.659Z,100265.09
2023-04-17T13:29:24.924Z,100263.34
2023-04-17T13:32:08.933Z,100255.25
2023-04-17T13:34:47.255Z,100267.69
2023-04-17T13:37:21.154Z,100261.97
2023-04-17T13:40:00.169Z,100262.16
2023-04-17T13:42:44.552Z,100259.78
2023-04-17T13:45:20.088Z,100261.06
2023-04-17T13:47:59.751Z,100258.22
2023-04-17T13:50:37.778Z,100261.59
2023-04-17T13:53:23.046Z,100261.75
2023-04-17T13:55:59.278Z,100251.03
2023-04-17T13:58:44.122Z,100254.03
2023-04-17T14:01:19.099Z,100248.44
2023-04-17T14:04:03.901Z,100251.91
2023-04-17T14:06:39.303Z,100241.19
2023-04-17T14:09:25.693Z,100247.31
2023-04-17T14:12:02.948Z,100246.34
2023-04-17T14:14:43.993Z,100250.66
2023-04-17T14:17:19.141Z,100237.69
2023-04-17T14:19:56.050Z,100243.47
2023-04-17T14:22:31.961Z,100238.75
2023-04-17T14:25:07.292Z,100229.88
2023-04-17T14:27:42.099Z,100240.91
2023-04-17T14:30:21.197Z,100239.19
2023-04-17T14:32:58.738Z,100235.72
2023-04-17T14:35:38.570Z,100228.25
2023-04-17T14:38:13.837Z,100233.69
2023-04-17T14:40:50.521Z,100236.44
2023-04-17T14:43:25.505Z,100236.09
2023-04-17T14:46:05.095Z,100231.50
2023-04-17T14:48:54.818Z,100239.94
2023-04-17T14:51:27.908Z,100242.50
2023-04-17T14:54:03.538Z,100238.38
2023-04-17T14:56:39.304Z,100234.56
2023-04-17T14:59:23.615Z,100235.03
2023-04-17T15:02:05.253Z,100235.50
2023-04-17T15:04:49.692Z,100235.78
2023-04-17T15:07:26.832Z,100239.44
2023-04-17T15:10:02.200Z,100235.44
2023-04-17T15:12:35.565Z,100238.81
2023-04-17T15:15:11.897Z,100241.03
2023-04-17T15:17:53.599Z,100247.50
2023-04-17T15:20:32.622Z,100239.31
2023-04-17T15:23:10.451Z,100224.50
2023-04-17T15:25:46.101Z,100245.91
2023-04-17T15:28:33.766Z,100227.34
2023-04-17T15:31:10.235Z,100233.41
2023-04-17T15:33:47.997Z,100239.81
2023-04-17T15:36:44.814Z,100228.38
2023-04-17T15:39:26.184Z,100215.00
2023-04-17T15:42:01.376Z,100241.91
2023-04-17T15:44:46.877Z,100235.41
2023-04-17T15:47:19.958Z,100243.19
2023-04-17T15:49:53.542Z,100234.13
2023-04-17T15:52:32.740Z,100248.50
2023-04-17T15:55:07.162Z,100240.22
2023-04-17T15:57:43.429Z,100244.25
2023-04-17T16:00:21.923Z,100240.41
2023-04-17T16:02:57.122Z,100245.56
2023-04-17T16:05:34.165Z,100240.78
2023-04-17T16:08:10.316Z,100244.59
2023-04-17T16:10:48.166Z,100248.00
2023-04-17T16:13:27.581Z,100223.66
2023-04-17T16:16:02.066Z,100254.44
2023-04-17T16:18:34.419Z,100254.31
2023-04-17T16:21:14.420Z,100243.28
2023-04-17T16:23:48.977Z,100253.94
2023-04-17T16:26:22.120Z,100253.00
2023-04-17T16:29:02.603Z,100253.50
2023-04-17T16:31:43.816Z,100259.59
2023-04-17T16:34:24.524Z,100256.28
2023-04-17T16:37:02.380Z,100256.44
2023-04-17T16:39:39.873Z,100262.03
2023-04-17T16:42:29.187Z,100263.78
2023-04-17T16:45:10.630Z,100269.38
2023-04-17T16:47:53.847Z,100264.91
2023-04-17T16:50:30.219Z,100240.69
2023-04-17T16:53:04.521Z,100264.41
2023-04-17T16:55:42.623Z,100263.94
2023-04-17T16:58:23.311Z,100280.34
2023-04-17T17:01:00.269Z,100275.72
2023-04-17T17:03:33.874Z,100276.22
2023-04-17T17:06:11.427Z,100281.44
2023-04-17T17:08:55.037Z,100286.84
2023-04-17T17:11:34.492Z,100296.06
2023-04-17T17:14:08.608Z,100294.28
2023-04-17T17:16:48.065Z,100297.13
2023-04-17T17:19:24.301Z,100301.09
2023-04-17T17:22:07.022Z,100302.66
2023-04-17T17:24:47.943Z,100303.41
2023-04-17T17:27:27.073Z,100305.78
2023-04-17T17:30:00.503Z,100310.09
2023-04-17T17:32:33.537Z,100305.78
2023-04-17T17:35:06.542Z,100309.59
2023-04-17T17:37:51.274Z,100310.22
2023-04-17T17:40:37.447Z,100306.66
2023-04-17T17:43:14.237Z,100314.50
2023-04-17T17:45:54.138Z,100314.31
2023-04-17T17:48:33.841Z,100311.56
2023-04-17T17:51:10.376Z,100285.88
2023-04-17T17:53:47.045Z,100318.25
2023-04-17T17:56:44.448Z,100322.69
2023-04-17T17:59:19.949Z,100324.13
2023-04-17T18:01:54.006Z,100324.88
2023-04-17T18:04:26.177Z,100327.88
2023-04-17T18:07:04.690Z,100332.75
2023-04-17T18:09:36.128Z,100306.91
2023-04-17T18:12:14.849Z,100341.69
2023-04-17T18:14:51.672Z,100340.88
2023-04-17T18:17:29.404Z,100325.72
2023-04-17T18:20:00.947Z,100339.72
2023-04-17T18:22:38.632Z,100338.75
2023-04-17T18:25:23.518Z,100346.63
2023-04-17T18:28:06.757Z,100345.66
2023-04-17T18:30:41.054Z,100341.97
2023-04-17T18:33:15.512Z,100343.41
2023-04-17T18:36:00.255Z,100341.16
2023-04-17T18:38:39.203Z,100342.09
2023-04-17T18:41:19.611Z,100351.97
2023-04-17T18:44:04.451Z,100341.28
2023-04-17T18:46:47.187Z,100345.28
2023-04-17T18:49:19.889Z,100348.81
2023-04-17T18:51:55.472Z,100350.19
2023-04-17T18:54:30.465Z,100352.09
2023-04-17T18:57:09.555Z,100340.22
2023-04-17T18:59:45.596Z,100359.53
2023-04-17T19:02:19.075Z,100351.56
2023-04-17T19:04:56.063Z,100355.84
2023-04-17T19:07:32.645Z,100360.94
2023-04-17T19:10:08.551Z,100333.09
2023-04-17T19:12:41.262Z,100344.28
2023-04-17T19:15:41.873Z,100361.38
2023-04-17T19:18:16.293Z,100338.09
2023-04-17T19:21:02.970Z,100365.28
2023-04-17T19:23:37.496Z,100351.63
2023-04-17T19:26:22.415Z,100363.91
2023-04-17T19:29:05.558Z,100366.72
2023-04-17T19:31:40.609Z,100352.03
2023-04-17T19:34:15.155Z,100359.84
2023-04-17T19:36:50.049Z,100352.56
2023-04-17T19:39:24.870Z,100341.06
2023-04-17T19:41:56.943Z,100335.75
2023-04-17T19:44:34.918Z,100344.03
2023-04-17T19:47:14.920Z,100352.16
2023-04-17T19:49:50.228Z,100349.34
2023-04-17T19:52:26.537Z,100338.47
2023-04-17T19:55:02.638Z,100348.06
2023-04-17T19:57:38.777Z,100345.09
2023-04-17T20:00:21.765Z,100345.09
2023-04-17T20:03:07.693Z,100344.28
2023-04-17T20:05:43.573Z,100341.25
2023-04-17T20:08:16.225Z,100345.09
2023-04-17T20:10:49.874Z,100346.97
2023-04-17T20:13:24.682Z,100347.16
2023-04-17T20:16:05.781Z,100344.28
2023-04-17T20:18:46.009Z,100347.88
2023-04-17T20:21:21.648Z,100349.47
2023-04-17T20:24:08.156Z,100341.59
2023-04-17T20:26:46.189Z,100348.00
2023-04-17T20:29:19.249Z,100353.88
2023-04-17T20:32:03.136Z,100356.09
2023-04-17T20:34:54.967Z,100348.09
2023-04-17T20:37:28.560Z,100358.78
2023-04-17T20:40:17.224Z,100353.81
2023-04-17T20:42:52.840Z,100370.38
2023-04-17T20:45:28.253Z,100370.38
2023-04-17T20:48:03.431Z,100378.56
2023-04-17T20:50:41.080Z,100369.06
2023-04-17T20:53:27.262Z,100380.38
2023-04-17T20:56:03.279Z,100374.19
2023-04-17T20:58:41.663Z,100364.84
2023-04-17T21:01:28.760Z,100378.34
2023-04-17T21:04:05.476Z,100379.94
2023-04-17T21:06:41.883Z,100378.94
2023-04-17T21:09:18.581Z,100371.53
2023-04-17T21:11:56.354Z,100380.53
2023-04-17T21:14:35.636Z,100379.63
2023-04-17T21:17:12.849Z,100362.53
2023-04-17T21:19:54.215Z,100377.22
2023-04-17T21:22:33.256Z,100382.84
2023-04-17T21:25:14.002Z,100378.44
2023-04-17T21:27:53.472Z,100375.53
2023-04-17T21:30:33.785Z,100354.16
2023-04-17T21:33:09.068Z,100373.53
2023-04-17T21:35:42.271Z,100383.84
2023-04-17T21:38:18.973Z,100372.63
2023-04-17T21:40:59.972Z,100377.44
2023-04-17T21:43:42.178Z,100373.22
2023-04-17T21:46:16.581Z,100378.91
2023-04-17T21:48:57.771Z,100376.53
2023-04-17T21:51:34.639Z,100383.09
2023-04-17T21:54:23.467Z,100373.00
2023-04-17T21:56:59.056Z,100374.59
2023-04-17T21:59:34.611Z,100386.09
2023-04-17T22:02:23.618Z,100382.38
2023-04-17T22:04:58.393Z,100385.16
2023-04-17T22:07:40.759Z,100384.94
2023-04-17T22:10:24.876Z,100392.22
2023-04-17T22:13:16.736Z,100388.25
2023-04-17T22:15:49.442Z,100401.00
2023-04-17T22:18:23.785Z,100387.38
2023-04-17T22:20:57.880Z,100394.53
2023-04-17T22:23:31.899Z,100396.28
2023-04-17T22:26:11.536Z,100404.28
2023-04-17T22:28:58.467Z,100399.78
2023-04-17T22:31:35.279Z,100401.66
2023-04-17T22:34:11.500Z,100389.59
2023-04-17T22:36:50.750Z,100401.16
2023-04-17T22:39:24.658Z,100378.25
2023-04-17T22:42:02.398Z,100399.41
2023-04-17T22:44:43.340Z,100402.91
2023-04-17T22:47:16.344Z,100404.81
2023-04-17T22:49:54.163Z,100379.53
2023-04-17T22:52:38.188Z,100406.53
2023-04-17T22:55:16.164Z,100409.75
2023-04-17T22:57:51.468Z,100395.34
2023-04-17T23:00:26.751Z,100407.34
2023-04-17T23:03:01.679Z,100379.28
2023-04-17T23:05:37.441Z,100403.34
2023-04-17T23:08:15.564Z,100400.13
2023-04-17T23:10:56.073Z,100403.34
2023-04-17T23:13:33.775Z,100401.75
2023-04-17T23:16:12.048Z,100405.47
2023-04-17T23:18:53.924Z,100394.75
2023-04-17T23:21:35.515Z,100399.59
2023-04-17T23:24:17.952Z,100390.88
2023-04-17T23:26:50.417Z,100399.44
2023-04-17T23:29:28.649Z,100407.13
2023-04-17T23:32:14.524Z,100403.63
2023-04-17T23:34:50.076Z,100394.97
2023-04-17T23:37:29.173Z,100389.97
2023-04-17T23:40:10.435Z,100402.78
2023-04-17T23:42:43.554Z,100400.88
2023-04-17T23:45:19.805Z,100398.25
2023-04-17T23:47:55.287Z,100390.97
2023-04-17T23:50:34.650Z,100393.06
2023-04-17T23:53:06.400Z,100373.84
2023-04-17T23:55:43.446Z,100395.78
2023-04-17T23:58:20.137Z,100397.78
